Time;durP1;ratioP1;P1;durP2;ratioP2;P2;SDS_P1;SDS_P2;PMS_P1;PMS_P2;Temp;Humidity;BMP_temperature;BMP_pressure;BME280_temperature;BME280_humidity;BME280_pressure;Samples;Min_cycle;Max_cycle;Signal;HPM_P1;HPM_P2
2023/08/14 00:02:06;;;;;;;;;;;23.60;63.30;;;;;;8379053;28;19916;-77
2023/08/14 00:06:07;;;;;;;;;;;23.70;63.30;;;;;;8362246;28;20532;-77
2023/08/14 00:10:08;;;;;;;;;;;23.70;63.40;;;;;;8396555;28;20010;-76
2023/08/14 00:14:08;;;;;;;;;;;23.70;63.30;;;;;;8378681;28;20008;-77
2023/08/14 00:18:09;;;;;;;;;;;23.60;63.20;;;;;;8378112;28;20331;-77
2023/08/14 00:22:09;;;;;;;;;;;23.70;63.30;;;;;;8395868;28;19939;-76
2023/08/14 00:26:11;;;;;;;;;;;23.70;63.30;;;;;;8377916;28;19912;-77
2023/08/14 00:30:13;;;;;;;;;;;23.70;63.30;;;;;;8406982;28;20393;-76
2023/08/14 00:34:14;;;;;;;;;;;23.70;63.20;;;;;;8378133;28;20379;-76
2023/08/14 00:38:14;;;;;;;;;;;23.70;63.30;;;;;;8361400;28;19927;-77
2023/08/14 00:42:15;;;;;;;;;;;23.70;63.30;;;;;;8396392;28;20297;-77
2023/08/14 00:46:15;;;;;;;;;;;23.70;63.20;;;;;;8378337;28;19908;-76
2023/08/14 00:50:16;;;;;;;;;;;23.70;63.30;;;;;;8379724;28;19908;-77
2023/08/14 00:54:17;;;;;;;;;;;23.70;63.30;;;;;;8378551;28;19909;-77
2023/08/14 00:58:18;;;;;;;;;;;23.70;63.20;;;;;;8379281;28;19916;-76
2023/08/14 01:02:18;;;;;;;;;;;23.70;63.20;;;;;;8381064;28;19913;-76
2023/08/14 01:06:19;;;;;;;;;;;23.60;63.10;;;;;;8380534;28;20343;-76
2023/08/14 01:10:20;;;;;;;;;;;23.70;63.20;;;;;;8399235;28;19931;-77
2023/08/14 01:14:27;;;;;;;;;;;23.60;63.10;;;;;;8420779;28;19935;-76
2023/08/14 01:18:29;;;;;;;;;;;23.60;63.10;;;;;;8425604;28;19913;-76
2023/08/14 01:22:39;;;;;;;;;;;23.60;63.10;;;;;;8426081;28;19915;-76
2023/08/14 01:26:40;;;;;;;;;;;23.60;63.00;;;;;;8417604;28;19904;-77
2023/08/14 01:30:40;;;;;;;;;;;23.60;63.00;;;;;;8402182;28;19920;-76
2023/08/14 01:34:41;;;;;;;;;;;23.60;63.00;;;;;;8435709;28;19901;-76
2023/08/14 01:38:49;;;;;;;;;;;23.60;63.00;;;;;;8397846;28;19920;-77
2023/08/14 01:42:55;;;;;;;;;;;23.60;63.00;;;;;;8394647;28;19912;-76
2023/08/14 01:46:56;;;;;;;;;;;23.60;63.00;;;;;;8376876;28;19909;-77
2023/08/14 01:50:57;;;;;;;;;;;23.60;63.00;;;;;;8375669;28;19909;-77
2023/08/14 01:55:00;;;;;;;;;;;23.60;63.70;;;;;;8393428;28;19916;-77
2023/08/14 01:59:01;;;;;;;;;;;23.60;63.00;;;;;;8392794;28;20132;-77
2023/08/14 02:03:02;;;;;;;;;;;23.60;63.00;;;;;;8375650;28;20384;-77
2023/08/14 02:07:03;;;;;;;;;;;23.60;63.00;;;;;;8393694;28;19920;-77
2023/08/14 02:11:07;;;;;;;;;;;23.60;63.00;;;;;;8375631;28;20337;-76
2023/08/14 02:15:08;;;;;;;;;;;23.60;63.00;;;;;;8359333;28;20377;-76
2023/08/14 02:19:09;;;;;;;;;;;23.60;62.90;;;;;;8394044;28;20343;-76
2023/08/14 02:23:09;;;;;;;;;;;23.60;63.00;;;;;;8359564;28;19913;-77
2023/08/14 02:27:10;;;;;;;;;;;23.60;62.90;;;;;;8375111;28;19927;-77
2023/08/14 02:31:10;;;;;;;;;;;23.60;62.90;;;;;;8394053;28;20007;-76
2023/08/14 02:35:11;;;;;;;;;;;23.60;62.80;;;;;;8375050;28;20366;-77
2023/08/14 02:39:11;;;;;;;;;;;23.60;62.80;;;;;;8358458;28;20430;-77
2023/08/14 02:43:12;;;;;;;;;;;23.60;62.80;;;;;;8374826;28;20328;-77
2023/08/14 02:47:13;;;;;;;;;;;23.60;62.80;;;;;;8392586;28;19913;-77
2023/08/14 02:51:15;;;;;;;;;;;23.60;62.80;;;;;;8375047;28;19909;-77
2023/08/14 02:55:15;;;;;;;;;;;23.60;62.80;;;;;;8374378;28;19912;-77
2023/08/14 02:59:16;;;;;;;;;;;23.60;62.80;;;;;;8358465;28;19927;-76
2023/08/14 03:03:17;;;;;;;;;;;23.60;62.80;;;;;;8374824;28;19952;-76
2023/08/14 03:07:17;;;;;;;;;;;23.60;62.80;;;;;;8393099;28;19912;-76
2023/08/14 03:11:18;;;;;;;;;;;23.60;62.80;;;;;;8379344;28;19931;-76
2023/08/14 03:15:18;;;;;;;;;;;23.50;62.70;;;;;;8398374;28;19913;-77
2023/08/14 03:19:19;;;;;;;;;;;23.60;62.80;;;;;;8397830;28;19912;-76
2023/08/14 03:23:19;;;;;;;;;;;23.50;62.80;;;;;;8380270;28;19936;-77
2023/08/14 03:27:20;;;;;;;;;;;23.60;62.90;;;;;;8379437;28;19908;-77
2023/08/14 03:31:20;;;;;;;;;;;23.60;62.80;;;;;;8397715;28;19916;-77
2023/08/14 03:35:21;;;;;;;;;;;23.50;62.70;;;;;;8363185;28;19920;-77
2023/08/14 03:39:22;;;;;;;;;;;23.60;62.70;;;;;;8379613;28;19920;-77
2023/08/14 03:43:22;;;;;;;;;;;23.60;62.70;;;;;;8397141;28;19908;-77
2023/08/14 03:47:23;;;;;;;;;;;23.60;62.70;;;;;;8362764;28;20370;-77
2023/08/14 03:51:23;;;;;;;;;;;23.60;62.70;;;;;;8397340;28;19912;-77
2023/08/14 03:55:24;;;;;;;;;;;23.50;62.60;;;;;;8378704;28;20427;-77
2023/08/14 03:59:24;;;;;;;;;;;23.60;62.70;;;;;;8362256;28;19947;-77
2023/08/14 04:03:25;;;;;;;;;;;23.60;62.70;;;;;;8396706;28;19965;-77
2023/08/14 04:07:25;;;;;;;;;;;23.60;62.70;;;;;;8378807;28;19913;-77
2023/08/14 04:11:26;;;;;;;;;;;23.60;62.70;;;;;;8396518;28;19956;-76
2023/08/14 04:15:27;;;;;;;;;;;23.50;62.60;;;;;;8378508;28;19909;-77
2023/08/14 04:19:27;;;;;;;;;;;23.60;62.60;;;;;;8396125;28;20346;-77
2023/08/14 04:23:30;;;;;;;;;;;23.60;62.60;;;;;;8360947;28;20197;-77
2023/08/14 04:27:31;;;;;;;;;;;23.60;62.60;;;;;;8395920;28;20352;-77
2023/08/14 04:31:31;;;;;;;;;;;23.50;62.60;;;;;;8361395;28;19912;-77
2023/08/14 04:35:32;;;;;;;;;;;23.50;62.60;;;;;;8395291;28;20382;-77
2023/08/14 04:39:32;;;;;;;;;;;23.50;62.60;;;;;;8395611;28;19912;-77
2023/08/14 04:43:33;;;;;;;;;;;23.50;62.60;;;;;;8360863;28;20015;-77
2023/08/14 04:47:33;;;;;;;;;;;23.50;62.60;;;;;;8377190;28;19919;-77
2023/08/14 04:51:34;;;;;;;;;;;23.50;62.60;;;;;;8395213;28;19919;-76
2023/08/14 04:55:34;;;;;;;;;;;23.50;62.60;;;;;;8360334;28;19924;-77
2023/08/14 04:59:35;;;;;;;;;;;23.50;62.50;;;;;;8376559;28;19921;-77
2023/08/14 05:03:36;;;;;;;;;;;23.50;62.50;;;;;;8395569;28;19955;-77
2023/08/14 05:07:36;;;;;;;;;;;23.50;62.50;;;;;;8377021;28;19916;-77
2023/08/14 05:11:38;;;;;;;;;;;23.50;62.50;;;;;;8376163;28;19925;-77
2023/08/14 05:15:38;;;;;;;;;;;23.50;62.40;;;;;;8376468;28;20362;-77
2023/08/14 05:19:39;;;;;;;;;;;23.60;62.40;;;;;;8376324;28;20286;-77
2023/08/14 05:23:42;;;;;;;;;;;23.50;62.40;;;;;;8359421;28;21383;-76
2023/08/14 05:27:42;;;;;;;;;;;23.50;62.40;;;;;;8375639;28;19909;-77
2023/08/14 05:31:43;;;;;;;;;;;23.60;62.40;;;;;;8376116;28;19913;-76
2023/08/14 05:35:43;;;;;;;;;;;23.50;62.30;;;;;;8375985;28;19920;-76
2023/08/14 05:39:44;;;;;;;;;;;23.50;62.30;;;;;;8393727;28;19917;-77
2023/08/14 05:43:44;;;;;;;;;;;23.50;62.30;;;;;;8393937;28;19927;-76
2023/08/14 05:47:45;;;;;;;;;;;23.50;62.40;;;;;;8393627;28;20377;-77
2023/08/14 05:51:45;;;;;;;;;;;23.50;62.40;;;;;;8393813;28;20292;-77
2023/08/14 05:55:46;;;;;;;;;;;23.50;62.40;;;;;;8375156;28;19912;-77
2023/08/14 05:59:46;;;;;;;;;;;23.50;63.20;;;;;;8393373;28;20208;-77
2023/08/14 06:03:47;;;;;;;;;;;23.50;62.30;;;;;;8375377;28;19912;-77
2023/08/14 06:07:48;;;;;;;;;;;23.50;62.30;;;;;;8393492;28;19919;-77
2023/08/14 06:11:48;;;;;;;;;;;23.50;62.30;;;;;;8375064;28;20433;-77
2023/08/14 06:15:49;;;;;;;;;;;23.50;62.30;;;;;;8375245;28;20286;-77
2023/08/14 06:19:50;;;;;;;;;;;23.50;62.30;;;;;;8393342;28;20305;-77
2023/08/14 06:23:50;;;;;;;;;;;23.50;62.30;;;;;;8375289;28;19912;-76
2023/08/14 06:27:51;;;;;;;;;;;23.50;62.30;;;;;;8392809;28;20366;-77
2023/08/14 06:31:51;;;;;;;;;;;23.50;62.30;;;;;;8375000;28;19913;-76
2023/08/14 06:35:52;;;;;;;;;;;23.50;62.30;;;;;;8374686;28;19916;-77
2023/08/14 06:39:52;;;;;;;;;;;23.50;62.30;;;;;;8393265;28;19923;-77
2023/08/14 06:43:53;;;;;;;;;;;23.50;62.30;;;;;;8394335;28;20378;-77
2023/08/14 06:47:53;;;;;;;;;;;23.50;62.30;;;;;;8381097;28;19919;-76
2023/08/14 06:51:54;;;;;;;;;;;23.50;62.30;;;;;;8381020;28;19908;-77
2023/08/14 06:55:55;;;;;;;;;;;23.50;62.30;;;;;;8398294;28;19999;-77
2023/08/14 06:59:56;;;;;;;;;;;23.50;62.40;;;;;;8380757;28;20305;-76
2023/08/14 07:03:56;;;;;;;;;;;23.50;62.40;;;;;;8380811;28;19991;-77
2023/08/14 07:07:57;;;;;;;;;;;23.50;62.40;;;;;;8398482;28;20371;-76
2023/08/14 07:11:57;;;;;;;;;;;23.50;62.40;;;;;;8398139;28;20247;-77
2023/08/14 07:15:58;;;;;;;;;;;23.50;62.30;;;;;;8398074;28;19912;-77
2023/08/14 07:19:58;;;;;;;;;;;23.50;62.30;;;;;;8380300;28;19916;-77
2023/08/14 07:23:59;;;;;;;;;;;23.50;62.40;;;;;;8380123;28;19913;-77
2023/08/14 07:27:59;;;;;;;;;;;23.50;62.30;;;;;;8379547;28;19920;-77
2023/08/14 07:32:00;;;;;;;;;;;23.50;62.30;;;;;;8363021;28;19920;-76
2023/08/14 07:36:01;;;;;;;;;;;23.50;62.30;;;;;;8397787;28;19919;-77
2023/08/14 07:40:01;;;;;;;;;;;23.50;62.30;;;;;;8379645;28;19917;-77
2023/08/14 07:44:02;;;;;;;;;;;23.50;62.30;;;;;;8379491;28;20384;-76
2023/08/14 07:48:03;;;;;;;;;;;23.50;62.30;;;;;;8362832;28;19913;-76
2023/08/14 07:52:04;;;;;;;;;;;23.50;62.30;;;;;;8379589;28;20185;-77
2023/08/14 07:56:04;;;;;;;;;;;23.50;62.30;;;;;;8377629;28;19908;-77
2023/08/14 08:00:09;;;;;;;;;;;23.50;62.30;;;;;;8379214;28;19928;-76
2023/08/14 08:04:09;;;;;;;;;;;23.50;62.30;;;;;;8346185;28;19955;-77
2023/08/14 08:08:10;;;;;;;;;;;23.50;62.30;;;;;;8378865;28;19916;-77
2023/08/14 08:12:10;;;;;;;;;;;23.50;62.30;;;;;;8345446;28;20294;-76
2023/08/14 08:16:11;;;;;;;;;;;23.50;62.30;;;;;;8361952;28;19913;-76
2023/08/14 08:20:11;;;;;;;;;;;23.50;62.30;;;;;;8362070;28;19916;-77
2023/08/14 08:24:12;;;;;;;;;;;23.50;62.30;;;;;;8328810;28;19920;-76
2023/08/14 08:28:12;;;;;;;;;;;23.50;62.30;;;;;;8362478;28;20011;-77
2023/08/14 08:32:13;;;;;;;;;;;23.50;62.30;;;;;;8345198;28;19913;-77
2023/08/14 08:36:17;;;;;;;;;;;23.50;62.30;;;;;;8362708;28;19913;-76
2023/08/14 08:40:17;;;;;;;;;;;23.50;62.30;;;;;;8329560;28;19916;-77
2023/08/14 08:44:21;;;;;;;;;;;23.50;62.30;;;;;;8345604;28;20388;-77
2023/08/14 08:48:22;;;;;;;;;;;23.50;62.30;;;;;;8364036;28;19944;-77
2023/08/14 08:52:24;;;;;;;;;;;23.50;62.30;;;;;;8364051;28;20038;-76
2023/08/14 08:56:26;;;;;;;;;;;23.50;62.30;;;;;;8348780;28;19956;-77
2023/08/14 09:00:26;;;;;;;;;;;23.50;62.30;;;;;;8370956;28;19927;-77
2023/08/14 09:04:27;;;;;;;;;;;23.50;62.30;;;;;;8371981;28;19924;-77
2023/08/14 09:08:27;;;;;;;;;;;23.50;62.30;;;;;;8373074;28;19920;-77
2023/08/14 09:12:29;;;;;;;;;;;23.50;62.30;;;;;;8383910;28;19960;-77
2023/08/14 09:16:29;;;;;;;;;;;23.50;62.30;;;;;;8360564;28;19913;-76
2023/08/14 09:20:30;;;;;;;;;;;23.50;62.30;;;;;;8377926;28;19944;-76
2023/08/14 09:24:33;;;;;;;;;;;23.50;62.30;;;;;;8401213;28;19904;-77
2023/08/14 09:28:34;;;;;;;;;;;23.50;62.30;;;;;;8383638;28;19904;-77
2023/08/14 09:32:35;;;;;;;;;;;23.50;62.30;;;;;;8402436;28;19920;-76
2023/08/14 09:36:36;;;;;;;;;;;23.50;62.30;;;;;;8381093;28;19916;-76
2023/08/14 09:40:36;;;;;;;;;;;23.50;62.20;;;;;;8360591;28;19912;-77
2023/08/14 09:44:37;;;;;;;;;;;23.50;62.20;;;;;;8343390;28;19925;-77
2023/08/14 09:48:39;;;;;;;;;;;23.50;62.20;;;;;;8326355;28;19912;-77
2023/08/14 09:52:40;;;;;;;;;;;23.50;62.20;;;;;;8360835;28;19913;-77
2023/08/14 09:56:40;;;;;;;;;;;23.50;62.20;;;;;;8360213;28;19915;-76
2023/08/14 10:00:41;;;;;;;;;;;23.50;62.20;;;;;;8359569;28;19952;-77
2023/08/14 10:04:46;;;;;;;;;;;23.50;62.20;;;;;;8342673;28;19996;-76
2023/08/14 10:08:48;;;;;;;;;;;23.50;62.20;;;;;;8343037;28;19916;-77
2023/08/14 10:12:55;;;;;;;;;;;23.50;62.20;;;;;;8342492;28;19964;-77
2023/08/14 10:16:59;;;;;;;;;;;23.50;62.10;;;;;;8360769;28;19916;-76
2023/08/14 10:21:00;;;;;;;;;;;23.50;62.20;;;;;;8348161;28;20042;-77
2023/08/14 10:25:04;;;;;;;;;;;23.50;62.10;;;;;;8367104;28;20374;-76
2023/08/14 10:29:05;;;;;;;;;;;23.50;62.20;;;;;;8366095;28;19913;-77
2023/08/14 10:33:06;;;;;;;;;;;23.50;62.20;;;;;;8366913;28;19920;-77
2023/08/14 10:37:06;;;;;;;;;;;23.50;62.20;;;;;;8365410;28;19913;-77
2023/08/14 10:41:07;;;;;;;;;;;23.50;62.20;;;;;;8366911;28;19913;-77
2023/08/14 10:45:08;;;;;;;;;;;23.50;62.20;;;;;;8364735;28;19920;-76
2023/08/14 10:49:12;;;;;;;;;;;23.50;62.20;;;;;;8331549;28;19956;-77
2023/08/14 10:53:13;;;;;;;;;;;23.50;62.20;;;;;;8366004;28;19909;-76
2023/08/14 10:57:14;;;;;;;;;;;23.50;62.10;;;;;;8365333;28;19917;-77
2023/08/14 11:01:16;;;;;;;;;;;23.50;62.90;;;;;;8364027;28;20425;-77
2023/08/14 11:05:17;;;;;;;;;;;23.50;62.90;;;;;;8366042;28;19908;-77
2023/08/14 11:09:20;;;;;;;;;;;23.50;62.10;;;;;;8365825;28;19921;-77
2023/08/14 11:13:20;;;;;;;;;;;23.50;62.10;;;;;;8394929;28;20009;-77
2023/08/14 11:17:22;;;;;;;;;;;23.50;62.10;;;;;;8380412;28;19917;-77
2023/08/14 11:21:23;;;;;;;;;;;23.50;62.10;;;;;;8363146;28;19909;-77
2023/08/14 11:25:23;;;;;;;;;;;23.50;62.10;;;;;;8379707;28;19913;-77
2023/08/14 11:29:24;;;;;;;;;;;23.50;62.10;;;;;;8362915;28;20388;-76
2023/08/14 11:33:24;;;;;;;;;;;23.50;62.00;;;;;;8379951;28;19944;-77
2023/08/14 11:37:25;;;;;;;;;;;23.50;62.00;;;;;;8379550;28;20046;-77
2023/08/14 11:41:25;;;;;;;;;;;23.50;62.00;;;;;;8397544;28;19920;-76
2023/08/14 11:45:27;;;;;;;;;;;23.50;62.00;;;;;;8397324;28;20208;-76
2023/08/14 11:49:30;;;;;;;;;;;23.50;62.10;;;;;;8379671;28;20003;-77
2023/08/14 11:53:31;;;;;;;;;;;23.50;62.10;;;;;;8379525;28;19940;-76
2023/08/14 11:57:32;;;;;;;;;;;23.50;62.10;;;;;;8396257;28;19919;-77
2023/08/14 12:01:37;;;;;;;;;;;23.50;62.00;;;;;;8379133;28;19913;-77
2023/08/14 12:05:39;;;;;;;;;;;23.50;62.00;;;;;;8379037;28;19923;-76
2023/08/14 12:09:39;;;;;;;;;;;23.50;61.90;;;;;;8362248;28;19912;-77
2023/08/14 12:13:40;;;;;;;;;;;23.50;61.90;;;;;;8396046;28;19932;-77
2023/08/14 12:17:42;;;;;;;;;;;23.50;61.90;;;;;;8361613;28;19917;-77
2023/08/14 12:21:42;;;;;;;;;;;23.50;62.00;;;;;;8396405;28;19931;-76
2023/08/14 12:25:43;;;;;;;;;;;23.50;61.90;;;;;;8395618;28;20016;-77
2023/08/14 12:29:44;;;;;;;;;;;23.50;61.90;;;;;;8395964;28;19912;-77
2023/08/14 12:33:44;;;;;;;;;;;23.50;61.90;;;;;;8361452;28;20332;-77
2023/08/14 12:37:45;;;;;;;;;;;23.50;61.90;;;;;;8395394;28;19919;-77
2023/08/14 12:41:45;;;;;;;;;;;23.50;61.90;;;;;;8394845;28;20293;-77
2023/08/14 12:45:46;;;;;;;;;;;23.50;61.90;;;;;;8377334;28;19917;-77
2023/08/14 12:49:46;;;;;;;;;;;23.50;61.90;;;;;;8377371;28;20401;-77
2023/08/14 12:53:47;;;;;;;;;;;23.50;61.90;;;;;;8395100;28;20008;-77
2023/08/14 12:57:48;;;;;;;;;;;23.50;61.90;;;;;;8376513;28;19923;-77
2023/08/14 13:01:48;;;;;;;;;;;23.50;61.90;;;;;;8360077;28;19913;-77
2023/08/14 13:05:49;;;;;;;;;;;23.50;61.90;;;;;;8394720;28;20007;-77
2023/08/14 13:09:49;;;;;;;;;;;23.50;61.90;;;;;;8394385;28;20290;-77
2023/08/14 13:13:50;;;;;;;;;;;23.50;61.90;;;;;;8376570;28;19924;-77
2023/08/14 13:17:50;;;;;;;;;;;23.50;61.90;;;;;;8394494;28;19913;-77
2023/08/14 13:21:51;;;;;;;;;;;23.50;61.90;;;;;;8376348;28;19909;-77
2023/08/14 13:25:51;;;;;;;;;;;23.50;62.60;;;;;;8376212;28;19917;-77
2023/08/14 13:29:52;;;;;;;;;;;23.50;61.90;;;;;;8394195;28;19912;-77
2023/08/14 13:33:52;;;;;;;;;;;23.60;61.90;;;;;;8359538;28;19912;-77
2023/08/14 13:37:53;;;;;;;;;;;23.50;61.80;;;;;;8359545;28;19916;-77
2023/08/14 13:41:54;;;;;;;;;;;23.50;61.80;;;;;;8393852;28;20366;-77
2023/08/14 13:45:54;;;;;;;;;;;23.50;61.80;;;;;;8393912;28;19924;-77
2023/08/14 13:49:55;;;;;;;;;;;23.50;61.70;;;;;;8393669;28;19970;-77
2023/08/14 13:53:55;;;;;;;;;;;23.50;61.70;;;;;;8359212;28;20397;-77
2023/08/14 13:57:56;;;;;;;;;;;23.50;61.70;;;;;;8392866;28;19920;-77
2023/08/14 14:01:56;;;;;;;;;;;23.50;61.70;;;;;;8393674;28;19912;-77
2023/08/14 14:05:57;;;;;;;;;;;23.60;61.70;;;;;;8393334;28;20293;-77
2023/08/14 14:09:57;;;;;;;;;;;23.60;61.70;;;;;;8393584;28;19962;-77
2023/08/14 14:13:58;;;;;;;;;;;23.60;61.70;;;;;;8375667;28;19921;-77
2023/08/14 14:17:58;;;;;;;;;;;23.60;61.70;;;;;;8393136;28;20443;-77
2023/08/14 14:21:59;;;;;;;;;;;23.60;61.70;;;;;;8393195;28;20022;-77
2023/08/14 14:26:00;;;;;;;;;;;23.50;61.60;;;;;;8358082;28;19912;-77
2023/08/14 14:30:00;;;;;;;;;;;23.60;61.70;;;;;;8358806;28;19913;-77
2023/08/14 14:34:01;;;;;;;;;;;23.60;61.70;;;;;;8375006;28;19997;-77
2023/08/14 14:38:01;;;;;;;;;;;23.60;61.70;;;;;;8375382;28;19917;-77
2023/08/14 14:42:02;;;;;;;;;;;23.60;61.60;;;;;;8375022;28;19979;-77
2023/08/14 14:46:03;;;;;;;;;;;23.60;61.60;;;;;;8375073;28;19909;-77
2023/08/14 14:50:04;;;;;;;;;;;23.50;61.60;;;;;;8392568;28;20286;-77
2023/08/14 14:54:06;;;;;;;;;;;23.60;61.70;;;;;;8392637;28;19951;-77
2023/08/14 14:58:07;;;;;;;;;;;23.60;61.60;;;;;;8374110;28;19917;-77
2023/08/14 15:02:07;;;;;;;;;;;23.60;61.60;;;;;;8358035;28;20011;-77
2023/08/14 15:06:11;;;;;;;;;;;23.60;61.60;;;;;;8377725;28;19915;-77
2023/08/14 15:10:11;;;;;;;;;;;23.60;61.60;;;;;;8397761;28;19924;-77
2023/08/14 15:14:12;;;;;;;;;;;23.60;61.60;;;;;;8398311;28;19920;-77
2023/08/14 15:18:12;;;;;;;;;;;23.60;61.60;;;;;;8398654;28;19917;-77
2023/08/14 15:22:13;;;;;;;;;;;23.60;61.60;;;;;;8380738;28;19918;-77
2023/08/14 15:26:13;;;;;;;;;;;23.50;61.60;;;;;;8397243;28;19915;-77
2023/08/14 15:30:15;;;;;;;;;;;23.60;61.70;;;;;;8379902;28;19928;-77
2023/08/14 15:34:15;;;;;;;;;;;23.60;61.70;;;;;;8397468;28;19909;-77
2023/08/14 15:38:16;;;;;;;;;;;23.60;61.70;;;;;;8379614;28;20377;-77
2023/08/14 15:42:16;;;;;;;;;;;23.50;61.60;;;;;;8379842;28;19966;-77
2023/08/14 15:46:17;;;;;;;;;;;23.60;61.70;;;;;;8397183;28;19915;-77
2023/08/14 15:50:17;;;;;;;;;;;23.50;61.60;;;;;;8379394;28;20435;-77
2023/08/14 15:54:18;;;;;;;;;;;23.60;61.70;;;;;;8362450;28;19912;-77
2023/08/14 15:58:18;;;;;;;;;;;23.60;61.70;;;;;;8378802;28;19923;-77
2023/08/14 16:02:21;;;;;;;;;;;23.60;61.60;;;;;;8378978;28;19961;-77
2023/08/14 16:06:21;;;;;;;;;;;23.60;61.60;;;;;;8378877;28;19912;-77
2023/08/14 16:10:22;;;;;;;;;;;23.50;61.60;;;;;;8345662;28;20420;-77
2023/08/14 16:14:24;;;;;;;;;;;23.50;61.60;;;;;;8396490;28;20433;-77
2023/08/14 16:18:25;;;;;;;;;;;23.60;61.60;;;;;;8394957;28;19919;-77
2023/08/14 16:22:25;;;;;;;;;;;23.50;61.60;;;;;;8396261;28;19912;-77
2023/08/14 16:26:26;;;;;;;;;;;23.60;61.60;;;;;;8395745;28;19913;-77
2023/08/14 16:30:26;;;;;;;;;;;23.60;61.60;;;;;;8395946;28;20376;-77
2023/08/14 16:34:27;;;;;;;;;;;23.60;61.60;;;;;;8396133;28;19913;-77
2023/08/14 16:38:28;;;;;;;;;;;23.60;61.70;;;;;;8378712;28;19939;-77
2023/08/14 16:42:28;;;;;;;;;;;23.60;61.70;;;;;;8362358;28;19913;-77
2023/08/14 16:46:29;;;;;;;;;;;23.60;61.70;;;;;;8397039;28;20273;-77
2023/08/14 16:50:30;;;;;;;;;;;23.60;61.70;;;;;;8396906;28;19908;-77
2023/08/14 16:54:30;;;;;;;;;;;23.50;61.60;;;;;;8379895;28;19916;-77
2023/08/14 16:58:31;;;;;;;;;;;23.60;61.70;;;;;;8380156;28;20255;-77
2023/08/14 17:02:31;;;;;;;;;;;23.50;61.60;;;;;;8380522;28;20164;-77
2023/08/14 17:06:32;;;;;;;;;;;23.60;61.60;;;;;;8380430;28;19974;-77
2023/08/14 17:10:33;;;;;;;;;;;23.60;61.70;;;;;;8410282;28;19912;-77
2023/08/14 17:14:34;;;;;;;;;;;23.50;61.60;;;;;;8426352;28;19964;-77
2023/08/14 17:18:34;;;;;;;;;;;23.60;61.60;;;;;;8410867;28;19904;-77
2023/08/14 17:22:35;;;;;;;;;;;23.50;61.60;;;;;;8418919;28;19991;-77
2023/08/14 17:26:39;;;;;;;;;;;23.60;61.60;;;;;;8417786;28;19976;-77
2023/08/14 17:30:39;;;;;;;;;;;23.50;61.50;;;;;;8419216;28;19901;-77
2023/08/14 17:34:40;;;;;;;;;;;23.60;61.60;;;;;;8372824;28;19919;-77
2023/08/14 17:38:40;;;;;;;;;;;23.60;61.60;;;;;;8377057;28;19981;-77
2023/08/14 17:42:41;;;;;;;;;;;23.60;61.60;;;;;;8360527;28;20385;-77
2023/08/14 17:46:42;;;;;;;;;;;23.60;61.60;;;;;;8376117;28;19913;-77
2023/08/14 17:50:42;;;;;;;;;;;23.50;61.60;;;;;;8375744;28;19913;-77
2023/08/14 17:54:43;;;;;;;;;;;23.60;61.70;;;;;;8393725;28;19919;-77
2023/08/14 17:58:43;;;;;;;;;;;23.50;61.60;;;;;;8375793;28;20378;-77
2023/08/14 18:02:45;;;;;;;;;;;23.50;61.60;;;;;;8375363;28;19913;-77
2023/08/14 18:06:45;;;;;;;;;;;23.50;61.60;;;;;;8375877;28;19908;-77
2023/08/14 18:10:46;;;;;;;;;;;23.50;61.60;;;;;;8359205;28;19932;-77
2023/08/14 18:14:46;;;;;;;;;;;23.60;61.60;;;;;;8376277;28;19912;-77
2023/08/14 18:18:50;;;;;;;;;;;23.50;61.50;;;;;;8393795;28;19995;-77
2023/08/14 18:22:50;;;;;;;;;;;23.60;61.60;;;;;;8376653;28;19947;-77
2023/08/14 18:26:51;;;;;;;;;;;23.60;61.60;;;;;;8375790;28;20420;-77
2023/08/14 18:30:51;;;;;;;;;;;23.50;61.60;;;;;;8393265;28;20325;-77
2023/08/14 18:34:52;;;;;;;;;;;23.50;61.50;;;;;;8375377;28;20386;-77
2023/08/14 18:38:52;;;;;;;;;;;23.60;61.60;;;;;;8374658;28;20270;-77
2023/08/14 18:42:53;;;;;;;;;;;23.60;61.70;;;;;;8399128;28;19913;-77
2023/08/14 18:46:53;;;;;;;;;;;23.60;61.50;;;;;;8399639;28;19919;-77
2023/08/14 18:50:54;;;;;;;;;;;23.60;61.60;;;;;;8399222;28;19951;-77
2023/08/14 18:54:55;;;;;;;;;;;23.60;61.60;;;;;;8363771;28;19912;-77
2023/08/14 18:58:57;;;;;;;;;;;23.60;61.60;;;;;;8380777;28;19920;-77
2023/08/14 19:02:58;;;;;;;;;;;23.50;61.60;;;;;;8398740;28;19919;-77
2023/08/14 19:06:58;;;;;;;;;;;23.50;61.60;;;;;;8380626;28;19916;-77
2023/08/14 19:10:59;;;;;;;;;;;23.50;61.60;;;;;;8380506;28;20015;-77
2023/08/14 19:14:59;;;;;;;;;;;23.50;61.60;;;;;;8398287;28;20381;-77
2023/08/14 19:19:00;;;;;;;;;;;23.50;61.60;;;;;;8398104;28;20364;-77
2023/08/14 19:23:01;;;;;;;;;;;23.50;61.60;;;;;;8398299;28;19909;-76
2023/08/14 19:27:01;;;;;;;;;;;23.50;61.60;;;;;;8397876;28;19977;-77
2023/08/14 19:31:02;;;;;;;;;;;23.50;61.60;;;;;;8363478;28;19912;-77
2023/08/14 19:35:04;;;;;;;;;;;23.60;61.60;;;;;;8397710;28;19915;-77
2023/08/14 19:39:05;;;;;;;;;;;23.60;61.60;;;;;;8397390;28;19966;-77
2023/08/14 19:43:05;;;;;;;;;;;23.50;61.60;;;;;;8379967;28;19966;-77
2023/08/14 19:47:06;;;;;;;;;;;23.60;61.60;;;;;;8379194;28;19989;-77
2023/08/14 19:51:08;;;;;;;;;;;23.50;61.60;;;;;;8379702;28;19924;-77
2023/08/14 19:55:08;;;;;;;;;;;23.60;61.60;;;;;;8379070;28;20108;-77
2023/08/14 19:59:09;;;;;;;;;;;23.60;61.60;;;;;;8378983;28;20374;-77
2023/08/14 20:03:10;;;;;;;;;;;23.50;61.50;;;;;;8378963;28;19924;-77
2023/08/14 20:07:10;;;;;;;;;;;23.50;61.50;;;;;;8361860;28;19948;-77
2023/08/14 20:11:11;;;;;;;;;;;23.50;61.50;;;;;;8396250;28;19969;-77
2023/08/14 20:15:11;;;;;;;;;;;23.60;61.60;;;;;;8378592;28;19971;-77
2023/08/14 20:19:12;;;;;;;;;;;23.50;61.50;;;;;;8396275;28;19963;-77
2023/08/14 20:23:13;;;;;;;;;;;23.50;61.50;;;;;;8378257;28;20386;-77
2023/08/14 20:27:13;;;;;;;;;;;23.50;61.60;;;;;;8395783;28;19944;-77
2023/08/14 20:31:17;;;;;;;;;;;23.50;61.60;;;;;;8395971;28;19919;-77
2023/08/14 20:35:18;;;;;;;;;;;23.50;61.60;;;;;;8377731;28;19944;-77
2023/08/14 20:39:18;;;;;;;;;;;23.50;61.50;;;;;;8377798;28;19951;-77
2023/08/14 20:43:22;;;;;;;;;;;23.50;61.50;;;;;;8377158;28;19912;-77
2023/08/14 20:47:22;;;;;;;;;;;23.50;61.50;;;;;;8395692;28;19909;-77
2023/08/14 20:51:23;;;;;;;;;;;23.50;62.30;;;;;;8395760;28;20373;-77
2023/08/14 20:55:24;;;;;;;;;;;23.50;61.50;;;;;;8394649;28;20394;-77
2023/08/14 20:59:25;;;;;;;;;;;23.50;61.50;;;;;;8395113;28;19912;-77
2023/08/14 21:03:25;;;;;;;;;;;23.50;61.50;;;;;;8376275;28;19936;-77
2023/08/14 21:07:26;;;;;;;;;;;23.50;61.50;;;;;;8376953;28;19979;-77
2023/08/14 21:11:27;;;;;;;;;;;23.50;61.50;;;;;;8359859;28;20400;-77
2023/08/14 21:15:27;;;;;;;;;;;23.60;61.50;;;;;;8376914;28;19990;-77
2023/08/14 21:19:28;;;;;;;;;;;23.60;61.60;;;;;;8394328;28;20374;-77
2023/08/14 21:23:28;;;;;;;;;;;23.50;61.50;;;;;;8376347;28;19920;-77
2023/08/14 21:27:29;;;;;;;;;;;23.50;61.50;;;;;;8375937;28;20281;-77
2023/08/14 21:31:30;;;;;;;;;;;23.50;61.50;;;;;;8359725;28;20305;-77
2023/08/14 21:35:30;;;;;;;;;;;23.50;61.60;;;;;;8375951;28;19912;-77
2023/08/14 21:39:31;;;;;;;;;;;23.50;61.60;;;;;;8376054;28;20007;-77
2023/08/14 21:43:32;;;;;;;;;;;23.50;61.60;;;;;;8394066;28;19920;-77
2023/08/14 21:47:33;;;;;;;;;;;23.50;61.50;;;;;;8393769;28;20432;-77
2023/08/14 21:51:33;;;;;;;;;;;23.50;61.50;;;;;;8394024;28;20263;-77
2023/08/14 21:55:34;;;;;;;;;;;23.50;61.50;;;;;;8393228;28;19920;-77
2023/08/14 21:59:34;;;;;;;;;;;23.50;61.50;;;;;;8375681;28;20408;-77
2023/08/14 22:03:35;;;;;;;;;;;23.50;61.50;;;;;;8393531;28;19919;-77
2023/08/14 22:07:36;;;;;;;;;;;23.50;61.50;;;;;;8375448;28;20230;-77
2023/08/14 22:11:36;;;;;;;;;;;23.50;61.50;;;;;;8393602;28;20268;-77
2023/08/14 22:15:37;;;;;;;;;;;23.50;61.50;;;;;;8378565;28;20011;-77
2023/08/14 22:19:38;;;;;;;;;;;23.50;61.50;;;;;;8382452;28;20007;-77
2023/08/14 22:23:38;;;;;;;;;;;23.50;61.50;;;;;;8365374;28;20365;-77
2023/08/14 22:27:40;;;;;;;;;;;23.50;61.50;;;;;;8381723;28;20401;-77
2023/08/14 22:31:40;;;;;;;;;;;23.50;61.50;;;;;;8399918;28;20035;-77
2023/08/14 22:35:50;;;;;;;;;;;23.50;61.50;;;;;;8399726;28;19912;-77
2023/08/14 22:39:51;;;;;;;;;;;23.50;61.50;;;;;;8381474;28;19912;-77
2023/08/14 22:43:51;;;;;;;;;;;23.50;61.50;;;;;;8399461;28;19965;-77
2023/08/14 22:47:52;;;;;;;;;;;23.50;61.50;;;;;;8381665;28;19920;-77
2023/08/14 22:51:53;;;;;;;;;;;23.50;61.50;;;;;;8381139;28;19913;-77
2023/08/14 22:55:54;;;;;;;;;;;23.50;61.60;;;;;;8398532;28;19999;-77
2023/08/14 22:59:54;;;;;;;;;;;23.50;61.50;;;;;;8380742;28;19924;-77
2023/08/14 23:03:55;;;;;;;;;;;23.50;61.50;;;;;;8380892;28;19909;-77
2023/08/14 23:07:55;;;;;;;;;;;23.50;61.60;;;;;;8398762;28;19916;-77
2023/08/14 23:11:56;;;;;;;;;;;23.50;61.50;;;;;;8364494;28;20290;-77
2023/08/14 23:15:56;;;;;;;;;;;23.50;61.50;;;;;;8365205;28;19920;-77
2023/08/14 23:19:57;;;;;;;;;;;23.50;61.50;;;;;;8363940;28;19924;-77